Logo AVAMET
Benvolgut visitant, si us plau, ingressa Recuperar contrasenya

Alcanar

Dades diàries. Acumulats / Últims 30 dies disponibles

Data Temperatura (°C) Humitat rel. (%) Pressió rel. (hPa) Vent (km/h) Precipitació
Mínima Mitjana Màxima Amplitud
tèrmica
Mínima Mitjana Màxima Mínima Mitjana Màxima Predom. Mitjana Ràfega
màxima
Total
(mm)
Índex-n
Mínima Mitjana Màxima Mínima Mitjana Màxima n
0 a 1
P0 max
mm 5'
Dades mensuals acumulades fins l'últim dia disponible
11/2019 6,9 11,2 18,8 14,6 14,3 17,9 25,4 18,5 34 58 89 997 1.010 1.020   55,0 1,6
Dades anuals acumulades fins l'últim dia disponible
2019 3,1 15,1 25,9 18,4 10,7 21,7 34,4 31,3 19 66 98 991 1.018 1.037   71,0 196,4
Últims 30 dies disponibles
21-11-2019 9,4     12,8     16,2 6,8 53 68 82 1.009 1.010 1.010 16,0 0,0
20-11-2019 7,6     11,2     14,7 7,1 60 73 86 1.010 1.014 1.017 18,0 0,0
19-11-2019 6,9     10,8     14,8 7,9 43 56 69 1.016 1.017 1.018 18,0 0,0
18-11-2019 9,0     11,8     14,6 5,6 45 61 77 1.008 1.012 1.016 31,0 0,0
17-11-2019 8,9     12,8     16,6 7,7 42 57 72 1.009 1.012 1.014 45,0 0,0
16-11-2019 6,9     10,9     15,0 8,1 35 53 70 1.007 1.011 1.014 26,0 0,0
15-11-2019 7,2     10,8     14,3 7,1 42 58 73 1.000 1.004 1.007 24,0 0,0
14-11-2019 8,1     11,2     14,4 6,3 49 65 81 999 1.005 1.010 40,0 0,0
13-11-2019 11,1     14,2     17,2 6,1 49 69 89 1.005 1.009 1.012 31,0 1,4
12-11-2019 11,9     14,9     17,9 6,0 41 49 56 1.009 1.011 1.013 45,0 0,0
11-11-2019 9,9     13,6     17,2 7,3 39 49 59 1.011 1.013 1.015 44,0 0,0
10-11-2019 10,3     12,9     15,5 5,2 41 54 67 1.011 1.013 1.014 52,0 0,0
09-11-2019 12,6     14,5     16,4 3,8 43 55 66 1.012 1.016 1.019 53,0 0,0
08-11-2019 9,8     13,3     16,9 7,1 34 49 64 1.009 1.012 1.015 53,0 0,0
07-11-2019 12,1     15,8     19,5 7,4 41 51 61 1.007 1.010 1.012 24,0 0,0
06-11-2019 12,3     16,4     20,4 8,1 37 50 62 1.009 1.011 1.013 55,0 0,0
05-11-2019 14,3     17,0     19,7 5,4 37 56 75 1.004 1.008 1.011 40,0 0,2
04-11-2019 15,2     20,1     25,1 9,9 41 54 66 1.004 1.007 1.009 26,0 0,0
03-11-2019 16,8     19,3     21,8 5,0 37 54 70 997 1.003 1.008 53,0 0,0
02-11-2019 18,8     22,1     25,4 6,6 46 58 70 1.002 1.007 1.012 13,0 0,0
01-11-2019 16,9     20,0     23,1 6,2 62 73 83 1.012 1.016 1.020 10,0 0,0
31-10-2019 18,6     22,2     25,8 7,2 43 59 75 1.019 1.020 1.021 27,0 0,0
30-10-2019 16,3     19,6     22,9 6,6 61 74 87 1.020 1.021 1.022 15,0 0,0
29-10-2019 15,0     18,4     21,9 6,9 69 83 96 1.016 1.018 1.020 0,0 0,2
28-10-2019 15,3     17,4     19,4 4,1 85 89 92 1.017 1.019 1.021 0,0 0,0
27-10-2019 14,6     18,1     21,5 6,9 66 80 94 1.021 1.023 1.024 15,0 0,2
26-10-2019 14,0     17,5     21,0 7,0 69 80 91 1.021 1.023 1.024 15,0 0,0
25-10-2019 13,9     17,7     21,5 7,6 61 72 82 1.021 1.023 1.024 11,0 0,0
24-10-2019 11,7     16,1     20,5 8,8 47 66 84 1.010 1.016 1.021 37,0 0,0
23-10-2019 11,7     15,2     18,6 6,9 62 78 94 1.004 1.008 1.011 27,0 4,8
Últims 13 mesos disponibles
10/2019 11,7 16,7 20,8 19,9 17,7 23,1 26,9 15,2 49 71 89 1.008 1.017 1.023 55,0 69,8
09/2019 15,1 19,8 23,2 23,1 23,4 26,3 29,2 14,1 54 70 85 1.011 1.018 1.028 45,0 54,2
08/2019 19,2 22,7 25,9 25,6 24,9 28,6 31,3 12,1 58 72 83 1.011 1.016 1.020 50,0 14,6
07/2019 19,2 23,0 25,4 26,1 26,1 29,2 32,4 13,2 53 67 81 1.006 1.014 1.021 44,0 7,8
06/2019 11,6 18,5 23,8 21,8 19,9 25,0 34,4 22,8 42 66 84 1.010 1.016 1.023 37,0 5,6
05/2019 11,3 14,7 19,8 18,0 16,9 21,3 27,8 16,5 43 64 89 1.006 1.016 1.025 64,0 19,6
04/2019 8,1 11,8 15,1 14,9 16,0 18,1 23,4 15,3 44 66 82 1.000 1.014 1.026 53,0 17,2
03/2019 6,9 10,3 12,4 14,2 13,8 18,1 24,1 17,2 43 61 83 1.012 1.024 1.031 53,0 4,4
02/2019 4,8 8,1 10,9 11,8 11,5 15,5 20,5 15,7 36 69 84 994 1.026 1.036 69,0 0,4
01/2019 3,1 7,7 11,1 11,0 10,7 14,2 18,6 15,5 40 61 84 1.002 1.020 1.033 71,0 1,2
12/2018 6,4 10,2 13,8 13,5 10,6 16,7 23,0 16,6 54 71 88 1.015 1.026 1.032 66,0 0,4
11/2018 8,3 11,6 17,0 14,6 14,2 17,5 19,7 11,4 54 75 89 1.003 1.016 1.025 71,0 98,2
10/2018 7,6 15,3 19,7 18,5 14,1 21,8 26,1 18,5 44 71 91 998 1.015 1.027 61,0 245,4
Tots els anys disponibles
2018 1,7 14,9 27,2 18,2 4,2 21,4 35,2 33,5 36 69 94 995 1.016 1.037 77,0 612,0
2017 2,3 14,6 25,4 17,9 8,2 21,3 34,2 31,9 32 68 93 998 1.020 1.038 71,0 185,2
2016 2,3 14,7 24,7 17,9 10,8 21,0 31,6 29,3 36 69 94 994 1.019 1.039 69,0 318,4
2015 2,1 14,7 21,4 17,9 19,3 21,2 32,0 29,9 58 69 80 1.016 1.020 1.031 89,0 330,4
2014 3,7 14,9 25,1 18,0 10,6 21,1 32,4 28,7 38 69 92 996 1.017 1.035 82,0 313,0
2013 2,5 14,1 18,7 17,4 17,4 20,6 31,6 29,1 57 66 71 1.008 1.017 1.026 82,0 400,8
2012 -0,2 6,3 3,8 10,0 20,4 13,6 22,4 22,6 46 56 67 87,0
2011 -0,2 14,3 24,5 17,5 7,8 20,7 31,4 31,6 37 69 91 119,0 435,6
Temperatura (°C)
Humitat relativa (%)
Velocitat del vent i ràfega màxima (km/h)
Direcció del vent (°)
Pressió (hPa)
Precipitació (mm)
Nota sobre les dades: s'avisa a l'usuari de la provisionalitat i no oficialitat d'aquestes dades
Logo AVAMET blanc
Web allotjada a Sollutia
Llicència de Creative CommonsLa web d'AVAMET i els seus continguts estan subjectes a una llicència de
Reconeixement - No Comercial - Compartir igual
Últimes estacions: Faura (Inforatge), Benifairó de les Valls (Inforatge), Xàbia - Les Valls (Soci), Xàbia - Alt de la Granadella (Soci), Villena - Sierra de Salinas (Soci), Sueca - Centre (Inforatge) - - -